Time;durP1;ratioP1;P1;durP2;ratioP2;P2;SDS_P1;SDS_P2;PMS_P1;PMS_P2;Temp;Humidity;BMP_temperature;BMP_pressure;BME280_temperature;BME280_humidity;BME280_pressure;Samples;Min_cycle;Max_cycle;Signal;HPM_P1;HPM_P2
2024/01/03 00:05:01;;;;;;;8.50;7.10;;;;;;;3.81;96.26;97774.59;216153;1265;142904;-74
2024/01/03 00:10:24;;;;;;;11.40;8.30;;;;;;;3.79;96.51;97763.70;216230;1267;140904;-74
2024/01/03 00:15:34;;;;;;;13.60;8.10;;;;;;;3.80;96.82;97758.50;216059;1264;140814;-78
2024/01/03 00:20:36;;;;;;;13.10;9.00;;;;;;;3.79;96.85;97752.48;216083;1267;140583;-78
2024/01/03 00:25:39;;;;;;;9.00;7.10;;;;;;;3.82;96.86;97744.91;216115;1267;139744;-78
2024/01/03 00:30:41;;;;;;;15.30;8.20;;;;;;;3.79;97.03;97738.77;216292;1267;140462;-77
2024/01/03 00:35:44;;;;;;;12.40;8.80;;;;;;;3.78;97.31;97729.59;216840;1264;140168;-76
2024/01/03 00:40:55;;;;;;;12.80;8.10;;;;;;;3.82;97.34;97720.84;216053;1264;141231;-75
2024/01/03 00:45:58;;;;;;;12.10;8.30;;;;;;;3.83;97.33;97713.70;219389;1260;140242;-79
2024/01/03 00:51:03;;;;;;;8.60;6.70;;;;;;;3.84;97.30;97709.71;216259;1267;141277;-79
2024/01/03 00:56:06;;;;;;;15.60;8.60;;;;;;;3.85;97.48;97699.95;216251;1263;140922;-76
2024/01/03 01:01:11;;;;;;;14.20;9.00;;;;;;;3.87;97.76;97696.73;216534;1265;139643;-73
2024/01/03 01:06:14;;;;;;;9.70;7.60;;;;;;;3.89;97.65;97688.27;216391;1265;140901;-73
2024/01/03 01:11:17;;;;;;;11.80;9.10;;;;;;;3.88;97.65;97686.58;216059;1264;139808;-72
2024/01/03 01:16:27;;;;;;;9.10;7.10;;;;;;;3.92;97.96;97683.52;215950;1265;140125;-74
2024/01/03 01:21:29;;;;;;;12.00;7.60;;;;;;;3.95;97.93;97679.25;216077;1267;140172;-72
2024/01/03 01:26:32;;;;;;;11.80;8.70;;;;;;;3.95;97.79;97674.52;215911;1266;143148;-73
2024/01/03 01:31:34;;;;;;;13.70;8.40;;;;;;;3.96;97.92;97664.61;216138;1263;140427;-73
2024/01/03 01:36:37;;;;;;;13.40;9.10;;;;;;;3.97;98.16;97660.29;215915;1262;139589;-74
2024/01/03 01:41:40;;;;;;;13.10;8.80;;;;;;;3.98;98.08;97652.27;217179;1265;140192;-76
2024/01/03 01:46:45;;;;;;;9.30;7.30;;;;;;;3.97;98.22;97644.91;215909;1265;142371;-73
2024/01/03 01:51:48;;;;;;;10.00;7.70;;;;;;;3.99;98.48;97634.41;216338;1264;140747;-75
2024/01/03 01:56:54;;;;;;;14.30;8.40;;;;;;;4.00;98.43;97628.69;215496;1267;139875;-75
2024/01/03 02:01:58;;;;;;;11.30;7.70;;;;;;;4.03;98.49;97618.65;215906;1267;140991;-73
2024/01/03 02:07:01;;;;;;;9.40;6.90;;;;;;;4.05;98.52;97615.21;216332;1265;140165;-72
2024/01/03 02:12:04;;;;;;;9.30;6.80;;;;;;;4.05;98.52;97600.17;216014;1265;139886;-74
2024/01/03 02:17:10;;;;;;;9.20;7.30;;;;;;;4.06;98.69;97594.02;216024;1267;141937;-72
2024/01/03 02:22:13;;;;;;;9.00;7.30;;;;;;;4.07;98.60;97590.87;215627;1267;139698;-76
2024/01/03 02:27:16;;;;;;;10.80;7.40;;;;;;;4.08;98.65;97587.18;215871;1265;140713;-76
2024/01/03 02:32:20;;;;;;;7.60;6.50;;;;;;;4.08;98.92;97580.39;215813;1267;139745;-75
2024/01/03 02:37:24;;;;;;;9.90;7.80;;;;;;;4.09;98.88;97575.49;215674;1264;139817;-76
2024/01/03 02:42:29;;;;;;;9.30;6.10;;;;;;;4.13;98.96;97568.21;215544;1267;141243;-73
2024/01/03 02:47:35;;;;;;;5.50;4.90;;;;;;;4.15;99.06;97557.27;215850;1265;140347;-72
2024/01/03 02:52:39;;;;;;;7.30;6.70;;;;;;;4.16;99.02;97550.43;215489;1267;139940;-75
2024/01/03 02:57:43;;;;;;;10.10;5.10;;;;;;;4.18;99.07;97541.17;216230;1264;140171;-75
2024/01/03 03:02:46;;;;;;;6.10;5.10;;;;;;;4.20;99.06;97533.77;216533;1265;139999;-74
2024/01/03 03:07:48;;;;;;;5.40;4.50;;;;;;;4.25;99.40;97526.17;215697;1263;139690;-74
2024/01/03 03:12:51;;;;;;;5.30;4.60;;;;;;;4.29;99.43;97517.87;216904;1267;140033;-75
2024/01/03 03:17:53;;;;;;;6.60;4.50;;;;;;;4.30;99.30;97515.19;219141;1265;139972;-75
2024/01/03 03:22:57;;;;;;;4.90;4.40;;;;;;;4.32;99.31;97509.50;216939;1267;140712;-75
2024/01/03 03:28:02;;;;;;;5.70;5.10;;;;;;;4.33;99.04;97504.88;215932;1267;140703;-78
2024/01/03 03:33:04;;;;;;;7.80;5.00;;;;;;;4.34;99.34;97501.36;216243;1264;140068;-72
2024/01/03 03:38:07;;;;;;;23.50;12.10;;;;;;;4.37;99.28;97492.89;215757;1265;141265;-74
2024/01/03 03:43:10;;;;;;;4.90;4.20;;;;;;;4.39;99.51;97488.38;216135;1265;140564;-77
2024/01/03 03:48:12;;;;;;;6.60;6.00;;;;;;;4.39;99.46;97476.09;216806;1265;139494;-75
2024/01/03 03:53:17;;;;;;;5.90;4.50;;;;;;;4.39;99.58;97466.95;216535;1264;139613;-72
2024/01/03 03:58:20;;;;;;;5.50;4.80;;;;;;;4.39;99.40;97469.43;216136;1267;140670;-77
2024/01/03 04:03:23;;;;;;;5.20;4.40;;;;;;;4.39;99.66;97465.69;216345;1267;140273;-80
2024/01/03 04:08:25;;;;;;;5.20;4.30;;;;;;;4.40;99.55;97455.36;215965;1264;139537;-81
2024/01/03 04:13:30;;;;;;;5.10;4.10;;;;;;;4.43;99.91;97450.42;216207;1265;140003;-80
2024/01/03 04:18:33;;;;;;;6.90;4.90;;;;;;;4.46;99.89;97442.59;216437;1267;139463;-78
2024/01/03 04:23:36;;;;;;;5.60;4.10;;;;;;;4.47;99.80;97440.80;216333;1265;140825;-78
2024/01/03 04:28:39;;;;;;;4.80;4.10;;;;;;;4.48;99.94;97438.34;216143;1267;141532;-81
2024/01/03 04:33:41;;;;;;;5.50;4.90;;;;;;;4.48;99.92;97435.33;216202;1265;140210;-78
2024/01/03 04:38:44;;;;;;;4.80;4.40;;;;;;;4.53;99.99;97434.00;216307;1263;139387;-75
2024/01/03 04:43:47;;;;;;;4.80;4.30;;;;;;;4.57;99.96;97432.20;216126;1267;141870;-77
2024/01/03 04:48:49;;;;;;;5.00;4.60;;;;;;;4.57;99.93;97432.30;216279;1268;139812;-74
2024/01/03 04:53:54;;;;;;;4.00;3.00;;;;;;;4.61;100.00;97431.63;216280;1265;140636;-78
2024/01/03 04:58:59;;;;;;;5.30;4.40;;;;;;;4.63;99.99;97422.77;217440;1264;140149;-76
2024/01/03 05:04:02;;;;;;;5.50;4.70;;;;;;;4.66;100.00;97418.09;216105;1263;140119;-78
2024/01/03 05:09:05;;;;;;;8.30;4.50;;;;;;;4.69;100.00;97418.17;216182;1265;140562;-74
2024/01/03 05:14:08;;;;;;;4.10;3.70;;;;;;;4.75;100.00;97410.83;217938;1265;139400;-73
2024/01/03 05:19:11;;;;;;;5.40;3.50;;;;;;;4.78;100.00;97411.86;216848;1267;140703;-77
2024/01/03 05:24:14;;;;;;;4.90;3.50;;;;;;;4.84;100.00;97406.36;216638;1267;139923;-79
2024/01/03 05:29:17;;;;;;;4.80;3.30;;;;;;;4.89;100.00;97402.15;216292;1265;139961;-78
2024/01/03 05:34:21;;;;;;;7.40;3.50;;;;;;;4.92;100.00;97393.30;216144;1264;139543;-75
2024/01/03 05:39:24;;;;;;;4.60;4.20;;;;;;;4.93;100.00;97397.41;216197;1267;140620;-75
2024/01/03 05:44:26;;;;;;;3.30;3.00;;;;;;;4.94;100.00;97399.64;216312;1267;140058;-78
2024/01/03 05:49:29;;;;;;;2.40;2.20;;;;;;;4.97;100.00;97408.59;216213;1267;140736;-76
2024/01/03 05:54:35;;;;;;;3.40;3.10;;;;;;;5.00;100.00;97399.58;216250;1267;139521;-75
2024/01/03 05:59:40;;;;;;;3.40;3.10;;;;;;;5.04;100.00;97408.17;216193;1265;140442;-76
2024/01/03 06:04:43;;;;;;;3.30;2.30;;;;;;;5.10;100.00;97408.67;216109;1266;140501;-77
2024/01/03 06:09:46;;;;;;;3.40;3.10;;;;;;;5.12;100.00;97394.75;216020;1267;140958;-78
2024/01/03 06:14:49;;;;;;;3.00;2.70;;;;;;;5.17;100.00;97390.23;216017;1267;139869;-78
2024/01/03 06:19:52;;;;;;;2.50;2.30;;;;;;;5.21;100.00;97394.93;215976;1267;139914;-76
2024/01/03 06:24:55;;;;;;;3.30;2.90;;;;;;;5.24;100.00;97387.02;216360;1267;141516;-77
2024/01/03 06:29:58;;;;;;;8.60;5.90;;;;;;;5.27;100.00;97396.23;216326;1267;140345;-77
2024/01/03 06:35:03;;;;;;;3.30;3.00;;;;;;;5.32;100.00;97410.31;216465;1268;140469;-76
2024/01/03 06:40:06;;;;;;;2.80;2.60;;;;;;;5.37;100.00;97416.98;215868;1265;139666;-75
2024/01/03 06:45:10;;;;;;;3.40;3.00;;;;;;;5.43;100.00;97414.38;216777;1267;139647;-80
2024/01/03 06:50:13;;;;;;;1.90;1.80;;;;;;;5.49;100.00;97412.81;215948;1264;139582;-74
2024/01/03 06:55:16;;;;;;;1.80;1.60;;;;;;;5.56;100.00;97412.99;216335;1265;139659;-75
2024/01/03 07:00:19;;;;;;;2.60;2.30;;;;;;;5.60;100.00;97413.27;216191;1267;229506;-75
2024/01/03 07:05:22;;;;;;;2.50;1.70;;;;;;;5.65;100.00;97417.36;216345;1267;140414;-77
2024/01/03 07:10:31;;;;;;;2.90;1.80;;;;;;;5.70;100.00;97422.36;216139;1268;140189;-72
2024/01/03 07:15:35;;;;;;;3.10;2.80;;;;;;;5.77;100.00;97418.47;216179;1267;141257;-78
2024/01/03 07:20:37;;;;;;;2.00;1.90;;;;;;;5.82;100.00;97420.73;216187;1265;140538;-74
2024/01/03 07:25:43;;;;;;;5.80;4.10;;;;;;;5.86;100.00;97422.80;216149;1264;139905;-77
2024/01/03 07:30:45;;;;;;;3.30;3.10;;;;;;;5.90;100.00;97420.58;216366;1264;142434;-74
2024/01/03 07:35:48;;;;;;;3.50;2.70;;;;;;;5.95;100.00;97427.63;216229;1267;140076;-76
2024/01/03 07:40:51;;;;;;;3.00;1.90;;;;;;;5.99;100.00;97432.61;216129;1264;140388;-78
2024/01/03 07:45:56;;;;;;;3.50;2.70;;;;;;;6.03;100.00;97423.95;216239;1267;140199;-76
2024/01/03 07:50:58;;;;;;;2.20;1.90;;;;;;;6.07;100.00;97427.46;217125;1267;140028;-73
2024/01/03 07:56:01;;;;;;;5.70;3.80;;;;;;;6.12;100.00;97432.73;216032;1267;140358;-75
2024/01/03 08:01:04;;;;;;;3.20;3.00;;;;;;;6.20;100.00;97442.38;215974;1268;140809;-78
2024/01/03 08:06:06;;;;;;;3.20;2.30;;;;;;;6.25;100.00;97447.36;216182;1269;139890;-76
2024/01/03 08:11:11;;;;;;;2.50;1.90;;;;;;;6.31;100.00;97449.92;216336;1268;139559;-78
2024/01/03 08:16:15;;;;;;;4.10;3.80;;;;;;;6.38;100.00;97447.34;216457;1267;140535;-79
2024/01/03 08:21:19;;;;;;;2.80;2.50;;;;;;;6.46;100.00;97452.36;216477;1264;140433;-76
2024/01/03 08:26:22;;;;;;;2.30;2.20;;;;;;;6.54;100.00;97453.42;216236;1267;140178;-79
2024/01/03 08:31:26;;;;;;;2.50;1.90;;;;;;;6.60;100.00;97454.39;216325;1269;139915;-76
2024/01/03 08:36:40;;;;;;;2.10;1.70;;;;;;;6.69;100.00;97455.04;216074;1269;140634;-75
2024/01/03 08:41:42;;;;;;;7.90;5.10;;;;;;;6.76;100.00;97454.32;216254;1267;139717;-78
2024/01/03 08:46:45;;;;;;;3.40;2.70;;;;;;;6.82;100.00;97460.36;216140;1265;139859;-74
2024/01/03 08:51:48;;;;;;;5.40;2.40;;;;;;;6.88;100.00;97465.23;216990;1267;139765;-80
2024/01/03 08:56:50;;;;;;;3.40;1.50;;;;;;;6.97;100.00;97467.77;216608;1264;139590;-76
2024/01/03 09:01:56;;;;;;;2.00;1.50;;;;;;;7.10;100.00;97469.39;216518;1267;140438;-80
2024/01/03 09:06:59;;;;;;;3.50;2.00;;;;;;;7.29;100.00;97477.95;216361;1267;140673;-76
2024/01/03 09:12:02;;;;;;;2.30;2.10;;;;;;;7.48;100.00;97479.34;216388;1269;140532;-77
2024/01/03 09:17:05;;;;;;;1.40;1.30;;;;;;;7.62;100.00;97482.58;216335;1264;139854;-76
2024/01/03 09:22:09;;;;;;;1.80;1.40;;;;;;;7.73;100.00;97488.27;216116;1267;140092;-77
2024/01/03 09:27:11;;;;;;;1.90;1.60;;;;;;;7.77;100.00;97488.20;216479;1264;139497;-80
2024/01/03 09:32:16;;;;;;;3.10;1.50;;;;;;;7.80;100.00;97495.94;217306;1264;210782;-82
2024/01/03 09:37:18;;;;;;;1.40;1.20;;;;;;;7.82;100.00;97495.94;216495;1263;140759;-80
2024/01/03 09:42:21;;;;;;;1.30;1.20;;;;;;;7.85;100.00;97502.23;216286;1264;140582;-82
2024/01/03 09:47:25;;;;;;;1.20;0.80;;;;;;;7.91;100.00;97508.70;216912;1264;140823;-80
2024/01/03 09:52:28;;;;;;;2.00;1.50;;;;;;;7.98;100.00;97507.95;216096;1266;140401;-81
2024/01/03 09:57:32;;;;;;;3.00;2.50;;;;;;;8.05;100.00;97521.20;216261;1269;139697;-81
2024/01/03 10:02:39;;;;;;;1.70;1.60;;;;;;;8.09;100.00;97522.83;216537;1264;140495;-81
2024/01/03 10:07:42;;;;;;;2.40;1.70;;;;;;;8.16;100.00;97524.81;216022;1268;140499;-81
2024/01/03 10:12:45;;;;;;;1.40;1.20;;;;;;;8.36;100.00;97523.39;216246;1264;139655;-84
2024/01/03 10:17:48;;;;;;;5.50;1.70;;;;;;;8.60;100.00;97518.11;216207;1264;139997;-76
2024/01/03 10:23:10;;;;;;;3.00;1.30;;;;;;;8.85;100.00;97527.02;216160;1268;143024;-80
2024/01/03 10:28:16;;;;;;;2.00;1.50;;;;;;;9.04;100.00;97525.86;216675;1267;328392;-81
2024/01/03 10:33:20;;;;;;;2.60;1.60;;;;;;;9.16;99.55;97523.18;216522;1267;140715;-81
2024/01/03 10:38:25;;;;;;;1.50;1.20;;;;;;;9.19;98.86;97525.41;216703;1267;141525;-79
2024/01/03 10:43:29;;;;;;;1.10;0.90;;;;;;;9.20;98.31;97523.70;216284;1264;140892;-79
2024/01/03 10:48:33;;;;;;;2.10;1.90;;;;;;;9.15;97.66;97522.70;216195;1264;139907;-80
2024/01/03 10:53:44;;;;;;;2.40;1.50;;;;;;;9.08;97.41;97524.98;216201;1267;141814;-79
2024/01/03 10:58:46;;;;;;;7.40;2.30;;;;;;;9.00;96.94;97524.67;215938;1265;141623;-78
2024/01/03 11:04:16;;;;;;;1.30;1.10;;;;;;;8.94;96.89;97525.84;216189;1264;140186;-78
2024/01/03 11:09:21;;;;;;;3.90;2.10;;;;;;;8.90;96.83;97536.12;215978;1270;140095;-79
2024/01/03 11:14:30;;;;;;;2.60;1.20;;;;;;;8.96;96.81;97533.57;215976;1264;139930;-80
2024/01/03 11:19:34;;;;;;;3.00;1.50;;;;;;;9.01;96.61;97530.04;215803;1267;142236;-78
2024/01/03 11:24:40;;;;;;;9.50;2.30;;;;;;;8.89;96.20;97525.23;215874;1267;140920;-77
2024/01/03 11:29:48;;;;;;;2.20;1.20;;;;;;;8.79;96.23;97522.35;216146;1267;140496;-78
2024/01/03 11:34:54;;;;;;;2.00;1.70;;;;;;;8.77;96.46;97518.27;215813;1264;140855;-78
2024/01/03 11:39:59;;;;;;;1.70;0.90;;;;;;;8.80;96.34;97518.52;216592;1264;140655;-79
2024/01/03 11:45:11;;;;;;;2.80;1.30;;;;;;;8.77;96.20;97513.74;216109;1268;139803;-80
2024/01/03 11:50:16;;;;;;;2.20;1.40;;;;;;;8.82;96.19;97517.44;215929;1267;140299;-79
2024/01/03 11:55:21;;;;;;;2.40;2.20;;;;;;;8.82;96.05;97519.30;216149;1264;140072;-80
2024/01/03 12:00:24;;;;;;;3.60;1.70;;;;;;;8.81;95.95;97522.77;215701;1264;140638;-79
2024/01/03 12:05:28;;;;;;;2.10;1.50;;;;;;;8.79;96.00;97526.86;216004;1264;140347;-79
2024/01/03 12:10:31;;;;;;;4.70;2.20;;;;;;;8.79;95.85;97527.55;215876;1264;140813;-79
2024/01/03 12:15:45;;;;;;;5.30;1.90;;;;;;;8.75;95.77;97526.14;215843;1268;162463;-79
2024/01/03 12:20:56;;;;;;;4.40;2.60;;;;;;;8.77;95.99;97525.77;215772;1263;141254;-78
2024/01/03 12:26:09;;;;;;;2.60;2.30;;;;;;;8.80;95.95;97529.46;215936;1264;140868;-79
2024/01/03 12:31:20;;;;;;;2.60;1.80;;;;;;;8.77;95.93;97534.80;215932;1267;139820;-79
2024/01/03 12:36:29;;;;;;;20.20;3.90;;;;;;;8.76;95.93;97534.31;215854;1264;140457;-79
2024/01/03 12:41:32;;;;;;;3.60;3.00;;;;;;;8.82;95.93;97534.55;216177;1267;141679;-82
2024/01/03 12:46:36;;;;;;;3.40;2.00;;;;;;;8.85;95.63;97535.54;215968;1264;140344;-80
2024/01/03 12:51:39;;;;;;;4.00;2.60;;;;;;;8.84;95.39;97534.96;216174;1268;140517;-80
2024/01/03 12:56:52;;;;;;;3.00;2.00;;;;;;;8.82;95.21;97538.54;217176;1264;140891;-82
2024/01/03 13:02:01;;;;;;;6.20;1.80;;;;;;;8.78;94.94;97536.86;216071;1267;140788;-82
2024/01/03 13:07:05;;;;;;;2.70;1.80;;;;;;;8.74;94.86;97537.36;215964;1264;140647;-79
2024/01/03 13:12:09;;;;;;;1.90;1.60;;;;;;;8.75;94.79;97538.36;215944;1267;140117;-79
2024/01/03 13:17:15;;;;;;;3.90;1.80;;;;;;;8.75;94.79;97537.23;216203;1267;140336;-79
2024/01/03 13:22:20;;;;;;;3.00;1.80;;;;;;;8.74;94.44;97533.10;215840;1264;139855;-80
2024/01/03 13:27:25;;;;;;;2.40;2.00;;;;;;;8.73;94.24;97536.57;215767;1264;139958;-80
2024/01/03 13:32:27;;;;;;;3.10;1.60;;;;;;;8.72;94.01;97534.30;215851;1264;140188;-78
2024/01/03 13:37:31;;;;;;;8.20;2.60;;;;;;;8.71;93.85;97540.30;216205;1264;140870;-79
2024/01/03 13:42:35;;;;;;;3.30;1.40;;;;;;;8.73;93.80;97538.27;215879;1267;140035;-78
2024/01/03 13:47:38;;;;;;;2.70;1.40;;;;;;;8.75;93.48;97539.95;216444;1264;222761;-78
2024/01/03 13:52:42;;;;;;;2.80;2.40;;;;;;;8.75;93.39;97545.01;216119;1264;139599;-79
2024/01/03 13:57:46;;;;;;;3.50;2.10;;;;;;;8.76;93.42;97547.60;215830;1267;140389;-78
2024/01/03 14:02:49;;;;;;;1.70;1.40;;;;;;;8.78;93.23;97552.85;215919;1264;139615;-78
2024/01/03 14:07:53;;;;;;;2.10;1.90;;;;;;;8.77;92.95;97550.73;216028;1267;140634;-78
2024/01/03 14:12:56;;;;;;;3.00;1.60;;;;;;;8.74;92.74;97547.50;216061;1263;209330;-78
2024/01/03 14:18:00;;;;;;;5.90;3.20;;;;;;;8.72;92.99;97548.10;216094;1266;139994;-78
2024/01/03 14:23:05;;;;;;;3.10;1.90;;;;;;;8.72;92.83;97551.30;216045;1267;139998;-78
2024/01/03 14:28:19;;;;;;;3.40;2.80;;;;;;;8.71;92.88;97547.90;215916;1264;245109;-77
2024/01/03 14:33:22;;;;;;;6.30;2.20;;;;;;;8.72;92.82;97552.83;215752;1264;139752;-77
2024/01/03 14:38:26;;;;;;;2.60;2.30;;;;;;;8.72;92.65;97551.50;216630;1264;140889;-77
2024/01/03 14:43:32;;;;;;;5.60;1.90;;;;;;;8.69;92.37;97550.13;216281;1264;140035;-78
2024/01/03 14:48:37;;;;;;;2.90;1.40;;;;;;;8.64;92.32;97542.51;215956;1264;141845;-78
2024/01/03 14:53:40;;;;;;;6.10;2.80;;;;;;;8.58;92.27;97543.77;216327;1267;160449;-78
2024/01/03 14:58:45;;;;;;;1.80;1.60;;;;;;;8.55;92.42;97548.64;215926;1264;139950;-75
2024/01/03 15:03:48;;;;;;;2.80;1.90;;;;;;;8.55;92.42;97555.01;215831;1267;142326;-79
2024/01/03 15:08:54;;;;;;;4.20;3.10;;;;;;;8.53;92.24;97559.70;215977;1264;139638;-78
2024/01/03 15:13:57;;;;;;;4.10;2.10;;;;;;;8.49;92.26;97560.04;216846;1264;140245;-79
2024/01/03 15:19:00;;;;;;;2.40;2.00;;;;;;;8.38;91.89;97564.59;215833;1265;140514;-78
2024/01/03 15:24:04;;;;;;;5.30;3.20;;;;;;;8.22;91.80;97556.95;216118;1267;140774;-77
2024/01/03 15:29:15;;;;;;;5.40;3.30;;;;;;;8.12;91.72;97560.44;215805;1264;142152;-78
2024/01/03 15:34:27;;;;;;;3.10;2.30;;;;;;;8.04;91.97;97559.19;215967;1263;139768;-78
2024/01/03 15:39:31;;;;;;;2.90;2.60;;;;;;;8.01;92.05;97565.62;216130;1264;140525;-78
2024/01/03 15:44:39;;;;;;;3.70;2.10;;;;;;;7.96;92.13;97565.39;215962;1267;139588;-76
2024/01/03 15:49:43;;;;;;;4.50;2.00;;;;;;;7.89;91.82;97565.40;215795;1264;139800;-77
2024/01/03 15:54:45;;;;;;;3.80;2.60;;;;;;;7.81;91.93;97559.85;215853;1264;140286;-78
2024/01/03 15:59:50;;;;;;;5.50;1.50;;;;;;;7.73;91.62;97553.02;215963;1265;139934;-77
2024/01/03 16:04:54;;;;;;;3.10;1.60;;;;;;;7.65;91.65;97553.80;215964;1264;139968;-75
2024/01/03 16:09:57;;;;;;;3.90;2.00;;;;;;;7.57;91.76;97554.88;215946;1267;140539;-77
2024/01/03 16:15:00;;;;;;;4.60;1.90;;;;;;;7.49;91.56;97558.75;215833;1264;139329;-77
2024/01/03 16:20:07;;;;;;;1.80;1.60;;;;;;;7.43;91.69;97549.48;216064;1267;140064;-78
2024/01/03 16:25:10;;;;;;;3.70;1.80;;;;;;;7.40;91.68;97549.80;216255;1264;139858;-79
2024/01/03 16:30:14;;;;;;;2.50;2.00;;;;;;;7.38;91.90;97551.13;216102;1264;140648;-78
2024/01/03 16:35:18;;;;;;;2.30;1.90;;;;;;;7.35;91.64;97558.77;215850;1263;223866;-77
2024/01/03 16:40:21;;;;;;;2.80;1.20;;;;;;;7.31;91.79;97562.45;215845;1264;140205;-78
2024/01/03 16:45:25;;;;;;;3.90;2.10;;;;;;;7.28;91.80;97564.83;216037;1265;140441;-77
2024/01/03 16:50:29;;;;;;;1.70;1.30;;;;;;;7.24;91.78;97561.33;215816;1264;140266;-77
2024/01/03 16:55:35;;;;;;;2.50;2.20;;;;;;;7.22;91.88;97559.10;216379;1264;139805;-76
2024/01/03 17:00:39;;;;;;;3.60;2.90;;;;;;;7.22;92.62;97561.44;215922;1267;139749;-76
2024/01/03 17:05:42;;;;;;;5.40;2.60;;;;;;;7.25;92.96;97565.88;216997;1264;140258;-76
2024/01/03 17:10:46;;;;;;;3.30;2.70;;;;;;;7.27;93.03;97560.12;215982;1267;139946;-76
2024/01/03 17:15:49;;;;;;;6.10;5.00;;;;;;;7.32;93.39;97562.34;215922;1264;140507;-79
2024/01/03 17:20:52;;;;;;;3.20;2.60;;;;;;;7.36;93.53;97565.06;215726;1264;139472;-76
2024/01/03 17:25:57;;;;;;;5.10;3.60;;;;;;;7.40;93.45;97561.56;215907;1264;139737;-76
2024/01/03 17:31:06;;;;;;;3.80;3.10;;;;;;;7.43;93.82;97560.77;215930;1264;141550;-78
2024/01/03 17:36:11;;;;;;;5.80;3.10;;;;;;;7.45;94.16;97557.75;216044;1263;140253;-76
2024/01/03 17:41:20;;;;;;;3.50;2.50;;;;;;;7.45;94.01;97550.44;215927;1264;139630;-77
2024/01/03 17:46:23;;;;;;;4.60;3.30;;;;;;;7.45;94.41;97554.24;215842;1264;139997;-77
2024/01/03 17:51:27;;;;;;;5.50;4.00;;;;;;;7.45;94.53;97554.94;216047;1264;140044;-77
2024/01/03 17:56:30;;;;;;;3.50;2.80;;;;;;;7.44;94.47;97559.86;215777;1264;139849;-76
2024/01/03 18:01:34;;;;;;;5.90;3.00;;;;;;;7.43;94.67;97550.91;215921;1264;140011;-76
2024/01/03 18:06:38;;;;;;;3.80;3.10;;;;;;;7.40;94.79;97554.73;215939;1264;140699;-77
2024/01/03 18:11:42;;;;;;;4.00;2.60;;;;;;;7.38;94.94;97548.20;215981;1267;139804;-78
2024/01/03 18:16:46;;;;;;;6.00;2.90;;;;;;;7.34;95.13;97533.96;216499;1267;140107;-79
2024/01/03 18:21:50;;;;;;;12.20;6.90;;;;;;;7.31;95.50;97537.48;216220;1264;140576;-77
2024/01/03 18:26:54;;;;;;;14.00;6.80;;;;;;;7.33;95.65;97546.64;215694;1264;140884;-78
2024/01/03 18:31:57;;;;;;;13.10;4.00;;;;;;;7.33;96.12;97549.98;215775;1267;140483;-77
2024/01/03 18:37:03;;;;;;;7.60;4.00;;;;;;;7.37;96.06;97550.70;216954;1263;141095;-77
2024/01/03 18:42:07;;;;;;;6.10;3.80;;;;;;;7.35;95.81;97536.98;216385;1265;139980;-77
2024/01/03 18:47:11;;;;;;;11.50;4.80;;;;;;;7.32;95.75;97532.97;216833;1264;140024;-78
2024/01/03 18:52:16;;;;;;;7.30;4.20;;;;;;;7.30;95.94;97530.22;217585;1264;140065;-78
2024/01/03 18:57:19;;;;;;;6.20;4.90;;;;;;;7.28;96.12;97527.89;215815;1267;140104;-77
2024/01/03 19:02:23;;;;;;;7.60;3.80;;;;;;;7.26;96.30;97525.67;215801;1265;140253;-77
2024/01/03 19:07:27;;;;;;;6.20;3.60;;;;;;;7.24;96.14;97522.96;215817;1267;139529;-77
2024/01/03 19:12:30;;;;;;;8.00;4.00;;;;;;;7.17;95.95;97523.75;215923;1267;141090;-74
2024/01/03 19:17:35;;;;;;;11.60;6.50;;;;;;;7.13;96.08;97525.41;215994;1267;139422;-76
2024/01/03 19:22:39;;;;;;;7.80;5.00;;;;;;;7.11;96.41;97523.02;215995;1267;139647;-76
2024/01/03 19:27:45;;;;;;;7.00;4.30;;;;;;;7.10;96.55;97524.98;215881;1267;141393;-78
2024/01/03 19:32:49;;;;;;;9.10;4.70;;;;;;;7.06;96.47;97521.31;215867;1267;140490;-75
2024/01/03 19:37:53;;;;;;;7.30;3.90;;;;;;;7.01;96.57;97516.73;215736;1265;140103;-76
2024/01/03 19:42:57;;;;;;;7.70;4.90;;;;;;;6.96;96.28;97516.46;215875;1267;139893;-76
2024/01/03 19:48:00;;;;;;;5.20;3.80;;;;;;;6.94;96.61;97515.66;215741;1264;139384;-77
2024/01/03 19:53:05;;;;;;;6.50;3.50;;;;;;;6.92;96.95;97514.83;215753;1264;139866;-74
2024/01/03 19:58:09;;;;;;;6.30;3.20;;;;;;;6.91;96.68;97518.58;216172;1264;140848;-76
2024/01/03 20:03:13;;;;;;;10.40;4.70;;;;;;;6.88;96.61;97521.02;216604;1264;140340;-76
2024/01/03 20:08:18;;;;;;;5.20;2.80;;;;;;;6.83;96.62;97521.75;215933;1265;140344;-76
2024/01/03 20:13:22;;;;;;;5.30;3.40;;;;;;;6.78;96.25;97520.78;215969;1265;141028;-77
2024/01/03 20:18:25;;;;;;;5.80;3.40;;;;;;;6.76;96.38;97523.33;215947;1267;139791;-77
2024/01/03 20:23:28;;;;;;;8.10;4.80;;;;;;;6.74;96.86;97524.06;215834;1267;141939;-75
2024/01/03 20:28:31;;;;;;;4.70;3.10;;;;;;;6.75;96.62;97532.90;215755;1264;139851;-77
2024/01/03 20:33:37;;;;;;;6.80;3.40;;;;;;;6.74;97.05;97535.92;215947;1265;140648;-76
2024/01/03 20:38:40;;;;;;;5.90;2.70;;;;;;;6.76;96.68;97539.37;215843;1267;150367;-77
2024/01/03 20:43:44;;;;;;;2.80;1.90;;;;;;;6.78;97.06;97539.79;215835;1267;140125;-76
2024/01/03 20:48:46;;;;;;;4.70;2.20;;;;;;;6.79;97.08;97546.47;216005;1264;141274;-76
2024/01/03 20:53:52;;;;;;;5.40;2.40;;;;;;;6.82;97.12;97548.33;215807;1265;140421;-77
2024/01/03 20:58:57;;;;;;;5.60;2.90;;;;;;;6.83;96.88;97548.55;215836;1267;140417;-78
2024/01/03 21:04:03;;;;;;;10.00;3.60;;;;;;;6.85;97.28;97543.84;216807;1266;140466;-76
2024/01/03 21:09:08;;;;;;;4.20;3.50;;;;;;;6.88;97.10;97548.40;216628;1264;140074;-75
2024/01/03 21:14:13;;;;;;;8.80;3.30;;;;;;;6.89;96.98;97551.79;215857;1267;140082;-77
2024/01/03 21:19:16;;;;;;;2.10;1.60;;;;;;;6.86;97.32;97553.36;216053;1264;140604;-74
2024/01/03 21:24:20;;;;;;;4.50;1.70;;;;;;;6.84;97.48;97552.63;216094;1267;139832;-75
2024/01/03 21:29:22;;;;;;;5.10;2.20;;;;;;;6.85;97.51;97554.80;216090;1267;139959;-72
2024/01/03 21:34:34;;;;;;;2.50;1.90;;;;;;;6.86;97.52;97549.83;215964;1265;139539;-75
2024/01/03 21:39:40;;;;;;;3.40;1.30;;;;;;;6.85;97.71;97550.77;216373;1267;139464;-76
2024/01/03 21:44:44;;;;;;;2.40;2.20;;;;;;;6.83;98.07;97547.86;216076;1265;139621;-73
2024/01/03 21:49:46;;;;;;;1.70;1.40;;;;;;;6.81;97.98;97548.33;216449;1264;140386;-78
2024/01/03 21:54:49;;;;;;;2.10;1.30;;;;;;;6.81;97.94;97545.36;216029;1267;139512;-77
2024/01/03 21:59:57;;;;;;;188.70;92.10;;;;;;;6.79;98.25;97545.67;216281;1265;139533;-74
2024/01/03 22:05:02;;;;;;;16.60;8.40;;;;;;;6.77;98.31;97543.70;215997;1267;140733;-74
2024/01/03 22:10:11;;;;;;;5.40;3.20;;;;;;;6.78;98.57;97547.47;216102;1267;142454;-76
2024/01/03 22:15:18;;;;;;;3.10;2.80;;;;;;;6.78;98.38;97545.04;216149;1264;140049;-75
2024/01/03 22:20:22;;;;;;;7.10;4.00;;;;;;;6.80;98.37;97537.05;216198;1265;139811;-80
2024/01/03 22:25:26;;;;;;;5.70;3.70;;;;;;;6.81;98.47;97537.46;215859;1265;139696;-78
2024/01/03 22:30:29;;;;;;;4.00;2.50;;;;;;;6.82;98.54;97537.52;215805;1267;473990;-77
2024/01/03 22:35:33;;;;;;;4.10;2.40;;;;;;;6.79;98.10;97533.66;216314;1265;140603;-80
2024/01/03 22:40:36;;;;;;;3.70;2.20;;;;;;;6.79;98.25;97540.38;216208;1267;139399;-77
2024/01/03 22:45:39;;;;;;;3.90;3.20;;;;;;;6.77;98.74;97536.35;217033;1265;140050;-79
2024/01/03 22:50:43;;;;;;;5.80;3.80;;;;;;;6.77;98.66;97534.65;216269;1267;139693;-79
2024/01/03 22:55:47;;;;;;;3.10;2.80;;;;;;;6.76;98.71;97531.91;216240;1267;139872;-78
2024/01/03 23:00:51;;;;;;;3.20;1.50;;;;;;;6.77;99.00;97531.64;216335;1267;139906;-79
2024/01/03 23:05:54;;;;;;;2.70;2.50;;;;;;;6.77;98.87;97530.69;215995;1265;139542;-75
2024/01/03 23:10:57;;;;;;;3.50;1.80;;;;;;;6.77;98.95;97525.27;215820;1267;139961;-75
2024/01/03 23:16:02;;;;;;;2.70;1.20;;;;;;;6.79;99.22;97528.46;215809;1266;139295;-75
2024/01/03 23:21:15;;;;;;;2.70;1.70;;;;;;;6.79;99.11;97523.06;215936;1266;139745;-76
2024/01/03 23:26:18;;;;;;;3.20;1.70;;;;;;;6.78;99.20;97523.70;215725;1265;139412;-75
2024/01/03 23:31:22;;;;;;;3.30;1.70;;;;;;;6.74;99.17;97518.03;216448;1265;141712;-78